Página principal
METAR-TAF:

METAR-TAF

Aeroportos :

Cairo, Egipto

Aeroporto Internacional do Cairo

latitude: 30-08N, longitude: 031-24E, altura: 64 m

Observação actual do tempo

O boletim foi feito há 19 minutos, às 15:00 UTC
Vento 9 kt de norte
Temperatura 18°C
Humidade 52%
Pressão 1022 hPa
Visibilidade 10 km ou mais
sem nuvens abaixo de 1500 metros e sem cumulonimbus

METAR: HECA 161500Z 35009KT CAVOK 18/08 Q1022 NOSIG

Hora: 17:19 (15:19 UTC)

Previsão

O boletim foi feito há 4 horas e 19 minutos, às 11:00 UTC
Previsão válida de 16 às 12 UTC a 17 às 18 UTC
Vento 10 kt de nor-nordeste
Visibilidade 10 km ou mais
Poucas nuvensa uma altura de 2500 ft
Temporariamente
de 17 às 01 UTC a 17 às 06 UTC
Vento 3 kt com direcção variável
Visibilidade: 3000 m
neblina

TAF: HECA 161100Z 1612/1718 02010KT 9999 FEW025 TEMPO 1701/1706 VRB03KT 3000 BR NSC

Observações e previsões do tempo de mais de 4000 aeroportos (mensagens METAR e TAF).

As estações disponíveis são os pontos amarelos e vermelhos sobre o mapa.

Mova o rato sobre o mapa para ver o nome da estação.

Depois clique no ponto para visualizar as observações e previsões meteorológicas.

Para alterar o mapa : clique nos botões verdes com uma cruz preta para aumentar o zoom; no botão verde com uma pitada de zoom; ou nas setas verdes para mapas adjacentes.


METAR-TAF: